Time;durP1;ratioP1;P1;durP2;ratioP2;P2;SDS_P1;SDS_P2;PMS_P1;PMS_P2;Temp;Humidity;BMP_temperature;BMP_pressure;BME280_temperature;BME280_humidity;BME280_pressure;Samples;Min_cycle;Max_cycle;Signal;HPM_P1;HPM_P2
2023/05/27 00:00:55;;;;;;;23.55;4.93;;;7.50;95.30;;;;;;5046982;28;20045;-69
2023/05/27 00:03:21;;;;;;;24.77;5.70;;;7.50;95.30;;;;;;5052313;28;20051;-68
2023/05/27 00:05:46;;;;;;;31.08;5.22;;;7.50;95.30;;;;;;5046100;28;20377;-68
2023/05/27 00:08:12;;;;;;;25.30;6.53;;;7.50;95.30;;;;;;5046999;28;20036;-71
2023/05/27 00:10:37;;;;;;;28.17;5.47;;;7.40;95.40;;;;;;5046189;28;20025;-70
2023/05/27 00:13:03;;;;;;;22.90;5.85;;;7.30;95.40;;;;;;5060185;28;20069;-67
2023/05/27 00:15:28;;;;;;;21.48;5.30;;;7.30;95.40;;;;;;5047311;28;20048;-68
2023/05/27 00:17:54;;;;;;;25.48;5.13;;;7.30;95.40;;;;;;5048100;28;20116;-68
2023/05/27 00:20:22;;;;;;;25.40;5.82;;;7.30;95.50;;;;;;5049920;28;20037;-67
2023/05/27 00:22:49;;;;;;;22.95;5.85;;;7.30;95.40;;;;;;5046206;28;20032;-69
2023/05/27 00:25:16;;;;;;;25.17;4.95;;;7.30;95.50;;;;;;5046986;28;20029;-69
2023/05/27 00:27:41;;;;;;;23.67;5.63;;;7.30;95.60;;;;;;5038071;28;22146;-68
2023/05/27 00:30:08;;;;;;;24.67;5.63;;;7.30;95.60;;;;;;5047548;28;20437;-70
2023/05/27 00:32:33;;;;;;;28.02;5.40;;;7.30;95.70;;;;;;5057412;28;20525;-68
2023/05/27 00:34:58;;;;;;;17.90;4.75;;;7.30;95.90;;;;;;5049106;28;20036;-68
2023/05/27 00:37:24;;;;;;;27.92;5.68;;;7.20;95.90;;;;;;5051228;28;20071;-68
2023/05/27 00:39:49;;;;;;;21.92;5.28;;;7.20;95.80;;;;;;5044053;28;20032;-69
2023/05/27 00:42:16;;;;;;;20.98;5.20;;;7.10;95.80;;;;;;5039599;28;20167;-67
2023/05/27 00:44:41;;;;;;;25.40;6.03;;;7.10;96.00;;;;;;5050421;28;20029;-67
2023/05/27 00:47:07;;;;;;;25.70;5.32;;;7.10;96.00;;;;;;5045463;28;20036;-68
2023/05/27 00:49:33;;;;;;;20.65;5.18;;;7.10;96.00;;;;;;5056001;28;20178;-68
2023/05/27 00:51:59;;;;;;;28.92;5.93;;;7.00;96.00;;;;;;5053234;28;20037;-68
2023/05/27 00:54:25;;;;;;;25.17;5.15;;;7.00;96.00;;;;;;5040281;28;20083;-69
2023/05/27 00:56:51;;;;;;;26.23;5.88;;;7.00;96.00;;;;;;5041040;28;20327;-67
2023/05/27 00:59:17;;;;;;;33.00;6.07;;;7.00;96.00;;;;;;5048854;28;20567;-68
2023/05/27 01:01:43;;;;;;;21.05;5.72;;;7.00;95.90;;;;;;5041609;28;20111;-68
2023/05/27 01:04:12;;;;;;;19.45;5.40;;;7.00;96.10;;;;;;5048557;28;20032;-67
2023/05/27 01:06:53;;;;;;;28.25;6.03;;;7.00;96.20;;;;;;5046055;28;20029;-68
2023/05/27 01:09:28;;;;;;;24.15;6.05;;;6.90;96.20;;;;;;5056230;28;20035;-69
2023/05/27 01:11:59;;;;;;;31.90;6.60;;;6.90;96.20;;;;;;5043239;28;20033;-68
2023/05/27 01:14:26;;;;;;;22.27;5.57;;;6.80;96.10;;;;;;5053746;28;20483;-69
2023/05/27 01:16:56;;;;;;;37.10;6.50;;;6.90;96.30;;;;;;5045444;28;20033;-69
2023/05/27 01:19:33;;;;;;;26.92;6.25;;;6.80;96.30;;;;;;5052095;28;20032;-68
2023/05/27 01:22:00;;;;;;;25.55;4.72;;;6.80;96.40;;;;;;5042547;28;20664;-69
2023/05/27 01:24:26;;;;;;;25.05;5.53;;;6.80;96.50;;;;;;5050388;28;20029;-69
2023/05/27 01:26:53;;;;;;;25.48;5.88;;;6.80;96.40;;;;;;5041132;28;20041;-69
2023/05/27 01:29:19;;;;;;;32.35;5.90;;;6.80;96.40;;;;;;5051575;28;20055;-68
2023/05/27 01:31:56;;;;;;;29.65;6.70;;;6.80;96.60;;;;;;5041726;28;20025;-68
2023/05/27 01:34:30;;;;;;;30.67;6.32;;;6.70;96.50;;;;;;5042138;28;20025;-68
2023/05/27 01:37:02;;;;;;;22.52;5.82;;;6.70;96.40;;;;;;5048079;28;20028;-68
2023/05/27 01:39:28;;;;;;;29.75;6.63;;;6.60;96.50;;;;;;5049324;28;20396;-68
2023/05/27 01:41:56;;;;;;;27.83;6.30;;;6.70;96.50;;;;;;5043479;28;20462;-68
2023/05/27 01:44:22;;;;;;;26.90;5.90;;;6.70;96.60;;;;;;5047178;28;20070;-68
2023/05/27 01:46:47;;;;;;;22.50;5.72;;;6.60;96.50;;;;;;5042212;28;20047;-69
2023/05/27 01:49:13;;;;;;;28.50;6.05;;;6.60;96.50;;;;;;5064658;28;20037;-68
2023/05/27 01:51:39;;;;;;;23.05;5.90;;;6.60;96.40;;;;;;5041981;28;20024;-68
2023/05/27 01:54:04;;;;;;;22.48;5.47;;;6.50;96.30;;;;;;5044956;28;20083;-68
2023/05/27 01:56:31;;;;;;;27.13;6.35;;;6.50;96.40;;;;;;5051245;28;20054;-69
2023/05/27 01:58:56;;;;;;;28.33;6.68;;;6.50;96.30;;;;;;5047151;28;20385;-68
2023/05/27 02:01:22;;;;;;;26.20;6.40;;;6.50;96.40;;;;;;5046478;28;20033;-68
2023/05/27 02:03:48;;;;;;;33.92;6.45;;;6.40;96.40;;;;;;5043387;28;20346;-68
2023/05/27 02:06:14;;;;;;;23.42;6.60;;;6.40;96.40;;;;;;5063749;28;20035;-69
2023/05/27 02:08:39;;;;;;;26.30;7.03;;;6.30;96.50;;;;;;5047928;28;20045;-68
2023/05/27 02:11:05;;;;;;;20.63;6.15;;;6.30;96.40;;;;;;5045343;28;20116;-68
2023/05/27 02:13:31;;;;;;;24.98;5.55;;;6.30;96.40;;;;;;5044263;28;20023;-67
2023/05/27 02:15:56;;;;;;;26.70;6.03;;;6.30;96.50;;;;;;5041142;28;20416;-68
2023/05/27 02:18:21;;;;;;;26.45;5.47;;;6.30;96.40;;;;;;5049029;28;20428;-69
2023/05/27 02:20:47;;;;;;;20.10;6.18;;;6.20;96.50;;;;;;5044187;28;20041;-68
2023/05/27 02:23:13;;;;;;;23.17;6.38;;;6.30;96.60;;;;;;5060275;28;20056;-69
2023/05/27 02:25:38;;;;;;;26.42;6.18;;;6.20;96.70;;;;;;5049043;28;20029;-69
2023/05/27 02:28:04;;;;;;;29.05;6.38;;;6.20;96.60;;;;;;5043646;28;20029;-68
2023/05/27 02:30:30;;;;;;;26.58;6.03;;;6.20;96.60;;;;;;5043528;28;20530;-68
2023/05/27 02:32:56;;;;;;;29.90;6.32;;;6.20;96.70;;;;;;5038299;28;20381;-68
2023/05/27 02:35:22;;;;;;;23.88;6.65;;;6.20;96.80;;;;;;5043143;28;20033;-68
2023/05/27 02:37:48;;;;;;;29.15;6.68;;;6.10;96.80;;;;;;5050484;28;20020;-68
2023/05/27 02:40:24;;;;;;;28.85;6.40;;;6.20;96.90;;;;;;5050791;28;20471;-68
2023/05/27 02:42:49;;;;;;;34.85;6.53;;;6.20;97.00;;;;;;5041734;28;20158;-68
2023/05/27 02:45:15;;;;;;;31.27;6.20;;;6.10;97.00;;;;;;5041567;28;20212;-69
2023/05/27 02:47:41;;;;;;;33.55;7.10;;;6.10;96.90;;;;;;5044987;28;20021;-69
2023/05/27 02:50:07;;;;;;;26.48;6.57;;;6.10;97.00;;;;;;5046922;28;20159;-69
2023/05/27 02:52:32;;;;;;;25.27;6.13;;;6.10;97.00;;;;;;5048240;28;20053;-70
2023/05/27 02:54:57;;;;;;;26.83;6.70;;;6.10;97.10;;;;;;5045950;28;20103;-69
2023/05/27 02:57:23;;;;;;;25.48;6.85;;;6.00;96.90;;;;;;5057926;28;20068;-69
2023/05/27 02:59:48;;;;;;;23.30;7.15;;;6.00;97.00;;;;;;5050581;28;20032;-69
2023/05/27 03:02:14;;;;;;;29.67;7.05;;;6.00;97.20;;;;;;5037824;28;20415;-69
2023/05/27 03:04:40;;;;;;;29.10;7.25;;;6.10;97.30;;;;;;5048038;28;20128;-68
2023/05/27 03:07:05;;;;;;;27.85;7.18;;;6.10;97.30;;;;;;5047818;28;20021;-69
2023/05/27 03:09:31;;;;;;;29.27;7.32;;;6.00;97.20;;;;;;5046715;28;20033;-69
2023/05/27 03:11:56;;;;;;;22.65;6.82;;;6.00;97.30;;;;;;5043800;28;20036;-68
2023/05/27 03:14:22;;;;;;;37.92;8.00;;;6.00;97.20;;;;;;5047956;28;20043;-69
2023/05/27 03:16:48;;;;;;;31.05;7.55;;;6.00;97.20;;;;;;5044743;28;20013;-69
2023/05/27 03:19:13;;;;;;;27.52;7.50;;;5.90;97.10;;;;;;5048729;28;20588;-68
2023/05/27 03:21:39;;;;;;;29.75;7.30;;;5.90;97.10;;;;;;5047177;28;20090;-70
2023/05/27 03:24:05;;;;;;;27.70;7.47;;;6.00;97.20;;;;;;5049189;28;20345;-69
2023/05/27 03:26:30;;;;;;;25.10;7.30;;;6.00;97.20;;;;;;5048732;28;20071;-68
2023/05/27 03:28:56;;;;;;;25.67;7.10;;;6.00;97.10;;;;;;5050395;28;20033;-68
2023/05/27 03:31:21;;;;;;;22.30;7.40;;;6.00;97.10;;;;;;5046209;28;20360;-69
2023/05/27 03:33:47;;;;;;;24.17;7.30;;;5.90;97.00;;;;;;5049441;28;20051;-69
2023/05/27 03:36:12;;;;;;;29.85;7.10;;;6.00;97.20;;;;;;5052045;28;20112;-69
2023/05/27 03:38:38;;;;;;;25.00;7.00;;;5.90;97.20;;;;;;5052381;28;20029;-68
2023/05/27 03:41:03;;;;;;;36.78;7.72;;;6.00;97.30;;;;;;5051272;28;20476;-69
2023/05/27 03:43:29;;;;;;;22.38;7.03;;;6.10;97.50;;;;;;5051392;28;20033;-69
2023/05/27 03:45:54;;;;;;;29.58;7.80;;;6.10;97.50;;;;;;5047325;28;20561;-69
2023/05/27 03:48:20;;;;;;;26.20;7.15;;;6.10;97.50;;;;;;5051337;28;20029;-69
2023/05/27 03:50:45;;;;;;;25.52;7.18;;;6.10;97.40;;;;;;5048182;28;20068;-69
2023/05/27 03:53:11;;;;;;;40.00;8.48;;;6.20;97.50;;;;;;5051185;28;20067;-69
2023/05/27 03:55:36;;;;;;;28.35;7.05;;;6.20;97.70;;;;;;5046513;28;20034;-68
2023/05/27 03:58:02;;;;;;;28.33;7.10;;;6.20;97.50;;;;;;5049609;28;20029;-69
2023/05/27 04:00:28;;;;;;;28.10;8.38;;;6.30;97.50;;;;;;5045622;28;20383;-70
2023/05/27 04:02:53;;;;;;;28.40;8.20;;;6.30;97.60;;;;;;5044714;28;20038;-69
2023/05/27 04:05:19;;;;;;;39.88;9.25;;;6.40;97.50;;;;;;5051981;28;20469;-70
2023/05/27 04:07:44;;;;;;;24.20;7.53;;;6.40;97.50;;;;;;5046309;28;20541;-69
2023/05/27 04:10:10;;;;;;;29.48;7.75;;;6.40;97.40;;;;;;5049361;28;20035;-69
2023/05/27 04:12:36;;;;;;;37.20;8.45;;;6.50;97.50;;;;;;5048896;28;20037;-68
2023/05/27 04:15:01;;;;;;;27.73;8.30;;;6.50;97.50;;;;;;5043878;28;20374;-69
2023/05/27 04:17:27;;;;;;;30.63;7.53;;;6.50;97.40;;;;;;5049194;28;20151;-68
2023/05/27 04:19:52;;;;;;;30.95;7.75;;;6.50;97.50;;;;;;5048980;28;20049;-69
2023/05/27 04:22:18;;;;;;;32.70;8.77;;;6.60;97.50;;;;;;5048863;28;20033;-70
2023/05/27 04:24:43;;;;;;;28.02;8.23;;;6.60;97.50;;;;;;5047245;28;20060;-69
2023/05/27 04:27:09;;;;;;;31.52;9.10;;;6.70;97.60;;;;;;5048487;28;20045;-70
2023/05/27 04:29:35;;;;;;;35.78;9.00;;;6.70;97.50;;;;;;5047482;28;20025;-68
2023/05/27 04:32:00;;;;;;;29.02;9.32;;;6.80;97.60;;;;;;5040893;28;20033;-68
2023/05/27 04:34:26;;;;;;;33.92;7.93;;;6.80;97.60;;;;;;5048884;28;20025;-69
2023/05/27 04:36:51;;;;;;;28.10;8.95;;;6.90;97.60;;;;;;5049567;28;20037;-68
2023/05/27 04:39:17;;;;;;;35.83;8.75;;;7.00;97.70;;;;;;5050548;28;20516;-68
2023/05/27 04:41:44;;;;;;;35.38;8.55;;;7.10;97.60;;;;;;5044595;28;20052;-69
2023/05/27 04:44:11;;;;;;;37.90;8.98;;;7.10;97.50;;;;;;5045416;28;20440;-68
2023/05/27 04:46:38;;;;;;;31.80;8.90;;;7.20;97.50;;;;;;5043292;28;20401;-68
2023/05/27 04:49:04;;;;;;;41.15;9.05;;;7.30;97.40;;;;;;5059795;28;20029;-69
2023/05/27 04:51:30;;;;;;;37.75;9.90;;;7.30;97.40;;;;;;5048258;28;20029;-68
2023/05/27 04:53:56;;;;;;;28.00;8.52;;;7.40;97.40;;;;;;5046142;28;20040;-68
2023/05/27 04:56:21;;;;;;;29.40;8.98;;;7.40;97.30;;;;;;5043748;28;20400;-68
2023/05/27 04:58:48;;;;;;;26.83;8.50;;;7.50;97.40;;;;;;5046215;28;20384;-68
2023/05/27 05:01:17;;;;;;;30.02;9.05;;;7.50;97.40;;;;;;5045358;28;20043;-68
2023/05/27 05:04:02;;;;;;;31.35;9.02;;;7.60;97.20;;;;;;5046334;28;20543;-68
2023/05/27 05:06:28;;;;;;;35.33;8.70;;;7.70;97.10;;;;;;5042651;28;20119;-67
2023/05/27 05:08:53;;;;;;;35.03;9.52;;;7.80;97.10;;;;;;5045138;28;20517;-69
2023/05/27 05:11:19;;;;;;;28.48;9.07;;;7.80;97.00;;;;;;5040990;28;20033;-68
2023/05/27 05:13:44;;;;;;;33.25;8.73;;;7.90;96.90;;;;;;5046361;28;20066;-68
2023/05/27 05:16:09;;;;;;;42.53;8.90;;;8.00;96.80;;;;;;5043437;28;20405;-69
2023/05/27 05:18:35;;;;;;;33.50;9.27;;;8.10;96.90;;;;;;5045536;28;20104;-68
2023/05/27 05:21:00;;;;;;;26.70;8.05;;;8.10;96.70;;;;;;5049332;28;20453;-71
2023/05/27 05:23:26;;;;;;;29.73;8.90;;;8.20;96.70;;;;;;5050833;28;20029;-71
2023/05/27 05:25:57;;;;;;;27.08;8.05;;;8.40;96.60;;;;;;5047566;28;20041;-69
2023/05/27 05:28:23;;;;;;;37.08;8.02;;;8.50;96.50;;;;;;5047170;28;20383;-70
2023/05/27 05:30:48;;;;;;;38.20;8.70;;;8.50;96.30;;;;;;5042608;28;20108;-73
2023/05/27 05:33:14;;;;;;;37.30;8.35;;;8.60;96.20;;;;;;5039986;28;20025;-75
2023/05/27 05:35:40;;;;;;;30.85;8.07;;;8.70;96.10;;;;;;5045278;28;20040;-73
2023/05/27 05:38:05;;;;;;;26.25;8.57;;;8.90;95.90;;;;;;5044017;28;20074;-72
2023/05/27 05:40:30;;;;;;;32.28;7.60;;;9.00;95.80;;;;;;5038587;28;20025;-72
2023/05/27 05:42:56;;;;;;;29.05;7.10;;;9.10;95.70;;;;;;5045841;28;20037;-72
2023/05/27 05:45:21;;;;;;;33.47;7.55;;;9.20;95.40;;;;;;5046230;28;20020;-73
2023/05/27 05:47:47;;;;;;;27.95;7.68;;;9.20;94.70;;;;;;5041877;28;20033;-72
2023/05/27 05:50:12;;;;;;;20.45;6.57;;;9.30;94.70;;;;;;5040670;28;20029;-73
2023/05/27 05:52:38;;;;;;;27.40;7.35;;;9.50;94.70;;;;;;5043772;28;20033;-72
2023/05/27 05:55:04;;;;;;;21.67;6.40;;;9.60;94.40;;;;;;5049122;28;20032;-72
2023/05/27 05:57:31;;;;;;;20.08;5.85;;;9.70;94.30;;;;;;5043215;28;20061;-71
2023/05/27 05:59:57;;;;;;;25.67;6.43;;;9.90;94.20;;;;;;5041620;28;20039;-73
2023/05/27 06:02:23;;;;;;;19.45;6.25;;;10.00;93.40;;;;;;5044663;28;20470;-73
2023/05/27 06:04:48;;;;;;;18.83;5.90;;;10.10;93.40;;;;;;5046844;28;20033;-73
2023/05/27 06:07:14;;;;;;;23.55;5.90;;;10.20;93.20;;;;;;5040649;28;20047;-73
2023/05/27 06:09:39;;;;;;;23.70;5.85;;;10.30;93.10;;;;;;5045861;28;20503;-74
2023/05/27 06:12:06;;;;;;;15.90;5.38;;;10.30;92.40;;;;;;5057172;28;20522;-73
2023/05/27 06:14:31;;;;;;;21.25;6.07;;;10.60;93.10;;;;;;5046974;28;20037;-73
2023/05/27 06:16:57;;;;;;;25.98;5.80;;;10.60;92.30;;;;;;5050496;28;20046;-73
2023/05/27 06:19:22;;;;;;;17.92;5.53;;;10.90;92.40;;;;;;5050562;28;20027;-73
2023/05/27 06:21:48;;;;;;;18.58;5.22;;;10.90;91.10;;;;;;5048995;28;20072;-73
2023/05/27 06:24:13;;;;;;;15.70;4.97;;;11.10;91.50;;;;;;5052544;28;20031;-73
2023/05/27 06:26:39;;;;;;;20.52;5.32;;;11.30;90.70;;;;;;5045820;28;20499;-74
2023/05/27 06:29:04;;;;;;;19.88;6.05;;;11.40;89.40;;;;;;5050987;28;20033;-73
2023/05/27 06:31:30;;;;;;;18.42;5.00;;;11.50;90.10;;;;;;5041681;28;20037;-74
2023/05/27 06:33:55;;;;;;;21.23;5.40;;;11.50;88.80;;;;;;5058134;28;20044;-73
2023/05/27 06:36:21;;;;;;;12.70;4.70;;;11.70;89.70;;;;;;5055217;28;20095;-73
2023/05/27 06:38:46;;;;;;;17.33;5.40;;;12.00;89.20;;;;;;5045902;28;20029;-73
2023/05/27 06:41:12;;;;;;;17.27;4.75;;;11.90;88.00;;;;;;5050349;28;20115;-73
2023/05/27 06:43:37;;;;;;;18.58;4.80;;;12.10;88.80;;;;;;5051670;28;20412;-73
2023/05/27 06:46:03;;;;;;;19.13;4.93;;;12.30;87.20;;;;;;5046269;28;20041;-73
2023/05/27 06:48:28;;;;;;;20.45;4.47;;;12.60;87.30;;;;;;5050852;28;20427;-74
2023/05/27 06:50:54;;;;;;;19.42;4.57;;;12.60;86.60;;;;;;5037559;28;20104;-74
2023/05/27 06:53:20;;;;;;;16.23;4.55;;;12.80;85.60;;;;;;5046377;28;20044;-73
2023/05/27 06:55:46;;;;;;;17.58;4.50;;;13.10;86.30;;;;;;5054569;28;20151;-74
2023/05/27 06:58:11;;;;;;;16.85;4.47;;;13.40;84.50;;;;;;5045847;28;20523;-73
2023/05/27 07:00:37;;;;;;;14.10;4.57;;;13.50;82.90;;;;;;5053087;28;20104;-73
2023/05/27 07:03:03;;;;;;;16.85;3.95;;;13.90;84.70;;;;;;5049108;28;20021;-73
2023/05/27 07:05:28;;;;;;;18.05;4.90;;;13.70;81.90;;;;;;5061369;28;20298;-74
2023/05/27 07:07:54;;;;;;;16.75;3.97;;;13.70;82.60;;;;;;5051679;28;20021;-73
2023/05/27 07:10:19;;;;;;;12.80;3.67;;;13.90;81.80;;;;;;5053517;28;20024;-74
2023/05/27 07:12:45;;;;;;;16.35;4.25;;;13.60;80.70;;;;;;5052010;28;20621;-73
2023/05/27 07:15:10;;;;;;;13.15;4.15;;;13.80;80.00;;;;;;5050193;28;20033;-74
2023/05/27 07:17:36;;;;;;;17.38;4.22;;;13.80;80.80;;;;;;5053756;28;20484;-74
2023/05/27 07:20:02;;;;;;;11.75;3.50;;;14.30;80.50;;;;;;5054148;28;20032;-73
2023/05/27 07:22:27;;;;;;;11.65;3.85;;;14.50;79.10;;;;;;5045730;28;20473;-74
2023/05/27 07:24:52;;;;;;;11.38;3.63;;;14.70;77.00;;;;;;5050283;28;20528;-74
2023/05/27 07:27:18;;;;;;;10.70;3.20;;;15.10;78.00;;;;;;5048549;28;20045;-74
2023/05/27 07:29:43;;;;;;;10.88;3.15;;;15.00;77.60;;;;;;5043629;28;20045;-74
2023/05/27 07:32:09;;;;;;;13.15;3.75;;;15.00;76.30;;;;;;5040645;28;20033;-73
2023/05/27 07:34:34;;;;;;;12.63;4.05;;;15.50;75.60;;;;;;5048893;28;20032;-73
2023/05/27 07:37:00;;;;;;;16.02;4.13;;;15.50;74.00;;;;;;5048572;28;20397;-73
2023/05/27 07:39:25;;;;;;;14.30;3.42;;;15.50;74.10;;;;;;5045370;28;20046;-73
2023/05/27 07:41:51;;;;;;;11.85;3.67;;;15.50;73.40;;;;;;5046821;28;20483;-72
2023/05/27 07:44:18;;;;;;;14.65;3.55;;;15.80;73.90;;;;;;5050677;28;20420;-73
2023/05/27 07:46:43;;;;;;;16.90;4.25;;;16.20;74.80;;;;;;5040660;28;20056;-73
2023/05/27 07:49:09;;;;;;;17.55;4.00;;;16.30;74.20;;;;;;5045642;28;20064;-74
2023/05/27 07:51:35;;;;;;;15.73;3.55;;;16.30;71.40;;;;;;5053713;28;20108;-73
2023/05/27 07:54:01;;;;;;;12.93;3.47;;;16.30;70.70;;;;;;5049835;28;20025;-74
2023/05/27 07:56:27;;;;;;;16.20;3.70;;;16.70;71.20;;;;;;5045572;28;20048;-73
2023/05/27 07:58:52;;;;;;;12.95;3.08;;;16.90;71.20;;;;;;5049321;28;20033;-73
2023/05/27 08:01:18;;;;;;;13.38;3.63;;;16.80;68.00;;;;;;5041476;28;20041;-74
2023/05/27 08:03:44;;;;;;;11.65;4.07;;;17.00;69.20;;;;;;5049862;28;20064;-74
2023/05/27 08:06:09;;;;;;;14.15;3.95;;;17.40;67.10;;;;;;5051856;28;20013;-72
2023/05/27 08:08:35;;;;;;;13.27;4.03;;;17.10;65.70;;;;;;5045614;28;20514;-73
2023/05/27 08:11:00;;;;;;;12.13;3.53;;;17.00;69.40;;;;;;5050355;28;20025;-73
2023/05/27 08:13:26;;;;;;;14.10;3.33;;;17.70;69.10;;;;;;5049173;28;20065;-73
2023/05/27 08:15:51;;;;;;;16.13;4.18;;;18.00;71.10;;;;;;5050794;28;20388;-74
2023/05/27 08:18:17;;;;;;;13.52;3.50;;;18.20;69.00;;;;;;5047907;28;20025;-74
2023/05/27 08:20:42;;;;;;;14.10;4.40;;;17.70;66.60;;;;;;5046624;28;20104;-74
2023/05/27 08:23:08;;;;;;;9.85;3.55;;;18.00;66.30;;;;;;5045382;28;20025;-74
2023/05/27 08:25:33;;;;;;;12.27;3.85;;;17.80;68.60;;;;;;5052797;28;20017;-74
2023/05/27 08:28:02;;;;;;;15.70;3.58;;;17.90;66.70;;;;;;5047878;28;20051;-74
2023/05/27 08:30:31;;;;;;;14.60;3.67;;;17.90;67.10;;;;;;5043122;28;20028;-74
2023/05/27 08:32:58;;;;;;;16.55;4.40;;;17.50;67.00;;;;;;5043837;28;20040;-74
2023/05/27 08:35:24;;;;;;;16.25;4.50;;;16.70;67.10;;;;;;5042712;28;20383;-74
2023/05/27 08:37:49;;;;;;;9.93;3.35;;;16.10;68.80;;;;;;5043777;28;20025;-74
2023/05/27 08:40:17;;;;;;;16.15;4.00;;;16.10;69.60;;;;;;5054791;28;20025;-73
2023/05/27 08:42:42;;;;;;;16.05;4.20;;;16.20;71.60;;;;;;5049880;28;20033;-73
2023/05/27 08:45:09;;;;;;;13.77;3.67;;;16.10;70.60;;;;;;5048618;28;20025;-73
2023/05/27 08:47:35;;;;;;;15.85;3.58;;;16.00;69.50;;;;;;5038078;28;20392;-70
2023/05/27 08:50:01;;;;;;;13.02;3.85;;;16.00;70.10;;;;;;5046998;28;20079;-70
2023/05/27 08:52:28;;;;;;;14.93;3.97;;;15.70;71.20;;;;;;5048838;28;20024;-69
2023/05/27 08:54:55;;;;;;;16.40;4.13;;;16.20;73.30;;;;;;5051017;28;20103;-70
2023/05/27 08:57:24;;;;;;;13.20;4.05;;;16.40;72.00;;;;;;5041455;28;20144;-70
2023/05/27 08:59:50;;;;;;;11.20;3.70;;;16.30;71.00;;;;;;5037903;28;20030;-71
2023/05/27 09:02:18;;;;;;;18.20;4.10;;;16.50;70.90;;;;;;5045365;28;20033;-71
2023/05/27 09:04:45;;;;;;;15.98;4.25;;;16.90;67.30;;;;;;5051036;28;20484;-70
2023/05/27 09:07:11;;;;;;;12.25;3.05;;;17.30;65.00;;;;;;5047077;28;20051;-70
2023/05/27 09:09:36;;;;;;;13.13;3.88;;;18.10;62.90;;;;;;5045288;28;20025;-70
2023/05/27 09:12:03;;;;;;;15.35;4.43;;;18.30;60.20;;;;;;5040271;28;20041;-72
2023/05/27 09:14:32;;;;;;;12.93;3.42;;;18.20;58.20;;;;;;5041586;28;20056;-71
2023/05/27 09:17:04;;;;;;;11.20;4.15;;;18.50;59.90;;;;;;5040522;28;20035;-71
2023/05/27 09:19:30;;;;;;;14.68;3.78;;;19.30;58.60;;;;;;5046204;28;20025;-71
2023/05/27 09:21:55;;;;;;;12.43;3.90;;;19.00;58.00;;;;;;5050511;28;20404;-71
2023/05/27 09:24:24;;;;;;;14.00;4.20;;;19.20;55.70;;;;;;5044798;28;20029;-71
2023/05/27 09:26:54;;;;;;;11.50;3.78;;;19.30;56.90;;;;;;5047834;28;20412;-71
2023/05/27 09:29:23;;;;;;;16.50;3.75;;;19.40;56.10;;;;;;5040957;28;20100;-72
2023/05/27 09:31:48;;;;;;;11.00;3.78;;;19.30;55.80;;;;;;5057783;28;20438;-71
2023/05/27 09:34:15;;;;;;;10.30;3.88;;;19.80;56.50;;;;;;5045468;28;20108;-71
2023/05/27 09:36:49;;;;;;;15.60;4.03;;;19.40;52.10;;;;;;5049513;28;20048;-72
2023/05/27 09:39:16;;;;;;;15.15;3.90;;;20.10;54.10;;;;;;5048434;28;20408;-71
2023/05/27 09:41:42;;;;;;;13.25;3.40;;;20.20;52.40;;;;;;5048470;28;20037;-71
2023/05/27 09:44:09;;;;;;;17.85;3.97;;;19.80;53.50;;;;;;5047168;28;20027;-72
2023/05/27 09:46:35;;;;;;;12.48;3.88;;;20.00;55.90;;;;;;5044055;28;20365;-73
2023/05/27 09:49:02;;;;;;;13.88;4.25;;;20.40;53.30;;;;;;5047373;28;20024;-71
2023/05/27 09:51:28;;;;;;;11.70;3.47;;;20.90;54.70;;;;;;5048534;28;20082;-72
2023/05/27 09:53:57;;;;;;;10.88;3.92;;;20.30;51.60;;;;;;5047711;28;20411;-72
2023/05/27 09:56:27;;;;;;;12.93;4.20;;;20.30;52.20;;;;;;5047873;28;20166;-71
2023/05/27 09:58:55;;;;;;;13.30;4.10;;;20.60;51.00;;;;;;5046309;28;20025;-72
2023/05/27 10:01:25;;;;;;;13.35;4.20;;;19.50;52.10;;;;;;5039699;28;20025;-71
2023/05/27 10:03:51;;;;;;;10.27;4.05;;;19.30;54.90;;;;;;5048525;28;20031;-72
2023/05/27 10:06:17;;;;;;;13.55;4.07;;;19.80;54.30;;;;;;5048648;28;20037;-72
2023/05/27 10:08:43;;;;;;;14.27;4.10;;;19.70;53.90;;;;;;5047304;28;20346;-71
2023/05/27 10:11:11;;;;;;;14.80;4.18;;;19.70;53.50;;;;;;5056010;28;20085;-71
2023/05/27 10:13:36;;;;;;;10.15;3.55;;;19.70;52.20;;;;;;5049898;28;20035;-72
2023/05/27 10:16:02;;;;;;;12.45;4.22;;;20.30;53.40;;;;;;5043047;28;20490;-70
2023/05/27 10:18:29;;;;;;;13.95;3.78;;;20.40;50.30;;;;;;5048389;28;20481;-70
2023/05/27 10:20:57;;;;;;;14.98;3.75;;;20.90;52.90;;;;;;5059998;28;20047;-72
2023/05/27 10:23:31;;;;;;;12.82;4.05;;;20.70;53.40;;;;;;5047834;28;20037;-70
2023/05/27 10:26:06;;;;;;;10.18;3.53;;;20.90;50.80;;;;;;5047938;28;20049;-70
2023/05/27 10:28:37;;;;;;;16.30;4.18;;;21.80;49.10;;;;;;5041203;28;20021;-71
2023/05/27 10:31:15;;;;;;;11.30;3.97;;;21.70;49.20;;;;;;5045860;28;20537;-71
2023/05/27 10:33:46;;;;;;;11.20;4.00;;;22.00;48.90;;;;;;5043506;28;20105;-71
2023/05/27 10:36:14;;;;;;;13.20;3.75;;;21.30;50.00;;;;;;5050206;28;20116;-70
2023/05/27 10:38:54;;;;;;;11.80;3.60;;;20.90;51.60;;;;;;5044122;28;20044;-72
2023/05/27 10:41:20;;;;;;;14.93;4.45;;;21.20;50.10;;;;;;5058305;28;20462;-71
2023/05/27 10:43:58;;;;;;;10.70;4.05;;;20.90;50.00;;;;;;5048654;28;20025;-72
2023/05/27 10:46:23;;;;;;;11.18;4.03;;;21.10;49.00;;;;;;5046670;28;20047;-72
2023/05/27 10:48:49;;;;;;;14.70;3.75;;;21.30;49.30;;;;;;5046566;28;20420;-72
2023/05/27 10:51:15;;;;;;;11.27;3.75;;;21.80;49.60;;;;;;5045063;28;20429;-72
2023/05/27 10:53:40;;;;;;;11.57;3.85;;;21.70;49.10;;;;;;5052905;28;20028;-72
2023/05/27 10:56:08;;;;;;;11.77;3.83;;;21.90;51.40;;;;;;5049827;28;20107;-72
2023/05/27 10:58:35;;;;;;;11.48;4.30;;;22.50;48.40;;;;;;5046833;28;20075;-72
2023/05/27 11:01:08;;;;;;;13.68;3.72;;;22.50;48.70;;;;;;5042464;28;20737;-72
2023/05/27 11:03:33;;;;;;;11.77;4.35;;;22.30;46.80;;;;;;5049928;28;20036;-72
2023/05/27 11:06:03;;;;;;;7.75;3.40;;;22.60;50.90;;;;;;5050843;28;20096;-73
2023/05/27 11:08:33;;;;;;;10.60;4.10;;;22.30;47.40;;;;;;5051218;28;20123;-72
2023/05/27 11:11:05;;;;;;;10.52;3.45;;;22.70;46.50;;;;;;5060337;28;20029;-72
2023/05/27 11:13:34;;;;;;;8.73;3.15;;;23.00;44.30;;;;;;5049531;28;20468;-72
2023/05/27 11:16:01;;;;;;;11.07;4.05;;;23.50;46.80;;;;;;5039827;28;20044;-72
2023/05/27 11:18:38;;;;;;;10.75;3.95;;;23.60;44.70;;;;;;5050517;28;20033;-72
2023/05/27 11:21:04;;;;;;;11.52;3.50;;;22.90;44.00;;;;;;5044742;28;20369;-72
2023/05/27 11:23:42;;;;;;;8.13;3.65;;;22.90;45.90;;;;;;5044785;28;20024;-72
2023/05/27 11:26:21;;;;;;;13.20;4.22;;;22.50;47.20;;;;;;5044746;28;20049;-72
2023/05/27 11:28:55;;;;;;;13.60;3.92;;;23.20;47.10;;;;;;5044732;28;20086;-73
2023/05/27 11:31:31;;;;;;;8.75;3.08;;;23.50;45.60;;;;;;5041835;28;20036;-71
2023/05/27 11:33:57;;;;;;;11.27;3.35;;;23.90;43.30;;;;;;5044322;28;20036;-71
2023/05/27 11:36:26;;;;;;;11.90;3.63;;;24.30;45.90;;;;;;5051133;28;20017;-72
2023/05/27 11:38:56;;;;;;;10.70;3.30;;;22.90;46.20;;;;;;5045988;28;20136;-72
2023/05/27 11:41:23;;;;;;;11.50;3.67;;;22.70;47.70;;;;;;5054336;28;20782;-72
2023/05/27 11:43:51;;;;;;;16.10;4.22;;;23.40;48.30;;;;;;5052941;28;20361;-72
2023/05/27 11:46:17;;;;;;;11.35;4.32;;;24.00;45.50;;;;;;5051759;28;20017;-72
2023/05/27 11:48:43;;;;;;;9.90;3.67;;;23.90;45.20;;;;;;5049528;28;20106;-72
2023/05/27 11:51:10;;;;;;;13.10;3.65;;;24.30;46.30;;;;;;5045237;28;20030;-72
2023/05/27 11:53:40;;;;;;;11.23;3.60;;;24.90;47.90;;;;;;5048265;28;20033;-72
2023/05/27 11:56:05;;;;;;;12.00;3.95;;;24.80;43.80;;;;;;5052123;28;20586;-70
2023/05/27 11:58:31;;;;;;;10.02;3.80;;;25.00;42.20;;;;;;5045055;28;20163;-71
2023/05/27 12:00:56;;;;;;;7.82;3.15;;;25.50;41.10;;;;;;5038677;28;20757;-70
2023/05/27 12:03:22;;;;;;;12.27;3.67;;;24.50;42.00;;;;;;5048056;28;20036;-72
2023/05/27 12:05:47;;;;;;;9.77;3.45;;;23.50;45.20;;;;;;5052822;28;20067;-71
2023/05/27 12:08:13;;;;;;;12.18;3.63;;;24.40;42.10;;;;;;5053980;28;20094;-70
2023/05/27 12:10:38;;;;;;;10.98;3.33;;;24.10;45.70;;;;;;5051651;28;20031;-71
2023/05/27 12:13:05;;;;;;;7.30;2.90;;;24.20;43.70;;;;;;5050200;28;20020;-71
2023/05/27 12:15:31;;;;;;;9.82;3.65;;;23.50;46.40;;;;;;5048093;28;20446;-70
2023/05/27 12:17:57;;;;;;;9.82;3.47;;;23.20;44.50;;;;;;5050035;28;20013;-70
2023/05/27 12:20:27;;;;;;;10.13;3.85;;;22.80;48.60;;;;;;5046228;28;20591;-72
2023/05/27 12:22:55;;;;;;;13.52;3.58;;;22.80;48.40;;;;;;5050589;28;20106;-72
2023/05/27 12:25:21;;;;;;;13.55;3.80;;;23.00;47.10;;;;;;5052922;28;20017;-72
2023/05/27 12:27:46;;;;;;;9.15;3.15;;;22.50;45.10;;;;;;5047614;28;20362;-72
2023/05/27 12:30:13;;;;;;;11.45;3.97;;;23.40;45.60;;;;;;5049561;28;20021;-72
2023/05/27 12:32:39;;;;;;;7.35;3.47;;;23.10;43.30;;;;;;5044906;28;20472;-70
2023/05/27 12:35:05;;;;;;;10.85;3.20;;;23.10;44.00;;;;;;5051067;28;20025;-70
2023/05/27 12:37:31;;;;;;;13.15;3.50;;;23.50;46.10;;;;;;5051541;28;20082;-70
2023/05/27 12:39:56;;;;;;;17.67;3.47;;;24.50;43.70;;;;;;5052480;28;20021;-70